Time;durP1;ratioP1;P1;durP2;ratioP2;P2;SDS_P1;SDS_P2;PMS_P1;PMS_P2;Temp;Humidity;BMP_temperature;BMP_pressure;BME280_temperature;BME280_humidity;BME280_pressure;Samples;Min_cycle;Max_cycle;Signal;HPM_P1;HPM_P2
2023/04/13 00:02:18;;;;;;;6.83;0.90;;;9.10;94.50;;;;;;5075771;28;20440;-56
2023/04/13 00:04:49;;;;;;;1.00;0.60;;;9.10;94.40;;;;;;5074847;28;20471;-56
2023/04/13 00:07:16;;;;;;;3.33;0.70;;;9.10;95.30;;;;;;5074901;28;20520;-55
2023/04/13 00:09:45;;;;;;;8.97;0.80;;;9.10;95.50;;;;;;5074788;28;20460;-55
2023/04/13 00:12:13;;;;;;;1.90;1.00;;;9.10;96.00;;;;;;5074565;28;20476;-55
2023/04/13 00:14:39;;;;;;;1.97;0.83;;;9.10;95.80;;;;;;5074627;28;20833;-55
2023/04/13 00:17:06;;;;;;;2.03;0.67;;;9.10;96.30;;;;;;5074657;28;20444;-56
2023/04/13 00:19:35;;;;;;;2.07;0.80;;;9.10;96.40;;;;;;5074634;28;20456;-56
2023/04/13 00:22:03;;;;;;;4.50;0.80;;;9.10;96.20;;;;;;5074525;28;20499;-56
2023/04/13 00:24:30;;;;;;;2.00;0.80;;;9.10;96.20;;;;;;5074492;28;20468;-56
2023/04/13 00:26:57;;;;;;;2.40;1.10;;;9.10;96.50;;;;;;5074178;28;20444;-56
2023/04/13 00:29:23;;;;;;;3.07;1.13;;;9.10;96.20;;;;;;5074156;28;20453;-56
2023/04/13 00:31:50;;;;;;;1.33;0.60;;;9.10;96.40;;;;;;5073969;28;20481;-56
2023/04/13 00:34:17;;;;;;;2.20;0.80;;;9.10;96.30;;;;;;5073965;28;20504;-56
2023/04/13 00:36:43;;;;;;;2.20;0.77;;;9.10;95.90;;;;;;5074208;28;20448;-55
2023/04/13 00:39:12;;;;;;;1.70;0.77;;;9.10;96.20;;;;;;5074261;28;20448;-55
2023/04/13 00:41:39;;;;;;;2.03;0.90;;;9.10;96.60;;;;;;5074404;28;20510;-56
2023/04/13 00:44:07;;;;;;;0.97;0.60;;;9.10;96.70;;;;;;5074065;28;20480;-56
2023/04/13 00:46:34;;;;;;;4.43;0.70;;;9.20;97.10;;;;;;5073776;28;20449;-56
2023/04/13 00:49:01;;;;;;;1.07;0.50;;;9.20;96.40;;;;;;5074034;28;20491;-57
2023/04/13 00:51:29;;;;;;;1.07;0.50;;;9.20;96.80;;;;;;5073641;28;21079;-56
2023/04/13 00:53:57;;;;;;;1.70;0.60;;;9.20;96.70;;;;;;5073904;28;20472;-56
2023/04/13 00:56:26;;;;;;;2.37;0.80;;;9.20;96.20;;;;;;5074029;28;20543;-56
2023/04/13 00:58:53;;;;;;;1.00;0.40;;;9.30;96.30;;;;;;5073945;28;20532;-56
2023/04/13 01:01:20;;;;;;;5.37;0.70;;;9.30;96.40;;;;;;5073910;28;20437;-56
2023/04/13 01:03:47;;;;;;;3.60;0.83;;;9.30;96.30;;;;;;5074046;28;20473;-56
2023/04/13 01:06:20;;;;;;;1.20;0.60;;;9.30;96.10;;;;;;5073852;28;20862;-56
2023/04/13 01:08:52;;;;;;;3.63;0.60;;;9.30;96.20;;;;;;5073597;28;20896;-56
2023/04/13 01:11:27;;;;;;;2.20;0.87;;;9.30;96.10;;;;;;5073675;28;20568;-56
2023/04/13 01:14:05;;;;;;;2.63;0.70;;;9.30;95.80;;;;;;5073653;28;20605;-56
2023/04/13 01:16:38;;;;;;;2.87;0.73;;;9.30;96.00;;;;;;5073178;28;20437;-56
2023/04/13 01:19:08;;;;;;;2.97;0.80;;;9.30;95.90;;;;;;5073440;28;20914;-56
2023/04/13 01:21:37;;;;;;;3.03;0.60;;;9.40;96.10;;;;;;5074503;28;20429;-56
2023/04/13 01:24:16;;;;;;;1.33;0.57;;;9.30;96.60;;;;;;5073496;28;20827;-56
2023/04/13 01:26:53;;;;;;;1.10;0.50;;;9.30;96.50;;;;;;5073529;28;20433;-56
2023/04/13 01:29:22;;;;;;;2.10;0.60;;;9.20;96.20;;;;;;5073541;28;20429;-56
2023/04/13 01:31:49;;;;;;;3.30;0.93;;;9.20;96.70;;;;;;5073510;28;20491;-56
2023/04/13 01:34:17;;;;;;;0.90;0.57;;;9.20;96.80;;;;;;5073209;28;20483;-56
2023/04/13 01:36:44;;;;;;;2.17;0.73;;;9.20;96.70;;;;;;5073980;28;20489;-56
2023/04/13 01:39:19;;;;;;;2.40;0.87;;;9.20;96.60;;;;;;5073407;28;20448;-57
2023/04/13 01:41:46;;;;;;;2.40;0.87;;;9.20;96.60;;;;;;5073245;28;20476;-56
2023/04/13 01:44:12;;;;;;;3.87;0.80;;;9.20;96.10;;;;;;5073265;28;20504;-56
2023/04/13 01:46:45;;;;;;;3.13;1.00;;;9.20;96.60;;;;;;5073232;28;20449;-56
2023/04/13 01:49:13;;;;;;;3.40;0.80;;;9.10;96.60;;;;;;5073371;28;20425;-56
2023/04/13 01:51:44;;;;;;;2.30;0.67;;;9.20;96.80;;;;;;5073029;28;20863;-56
2023/04/13 01:54:13;;;;;;;2.40;1.10;;;9.20;96.50;;;;;;5073183;28;20802;-56
2023/04/13 01:56:41;;;;;;;3.37;0.70;;;9.20;96.40;;;;;;5073207;28;20535;-56
2023/04/13 01:59:08;;;;;;;4.60;0.70;;;9.30;96.40;;;;;;5072851;28;20942;-56
2023/04/13 02:01:37;;;;;;;1.07;0.60;;;9.30;96.30;;;;;;5073222;28;20486;-56
2023/04/13 02:04:06;;;;;;;2.33;0.70;;;9.30;96.30;;;;;;5073071;28;20469;-56
2023/04/13 02:06:33;;;;;;;2.50;0.70;;;9.30;96.00;;;;;;5073068;28;20449;-56
2023/04/13 02:09:00;;;;;;;3.23;0.80;;;9.30;96.00;;;;;;5073254;28;20453;-56
2023/04/13 02:11:27;;;;;;;1.10;0.67;;;9.30;96.00;;;;;;5072921;28;20452;-56
2023/04/13 02:13:56;;;;;;;4.70;1.10;;;9.30;96.10;;;;;;5073014;28;20465;-56
2023/04/13 02:16:24;;;;;;;5.00;1.10;;;9.30;96.10;;;;;;5073023;28;20458;-56
2023/04/13 02:18:50;;;;;;;2.77;0.80;;;9.40;96.00;;;;;;5073028;28;20455;-56
2023/04/13 02:21:18;;;;;;;5.43;0.80;;;9.40;95.70;;;;;;5072869;28;20448;-56
2023/04/13 02:23:45;;;;;;;2.03;0.87;;;9.40;95.80;;;;;;5073017;28;20472;-56
2023/04/13 02:26:13;;;;;;;4.00;0.77;;;9.40;95.80;;;;;;5073086;28;20457;-56
2023/04/13 02:28:40;;;;;;;2.00;0.80;;;9.50;95.90;;;;;;5075667;28;20451;-56
2023/04/13 02:31:07;;;;;;;3.03;0.80;;;9.50;95.70;;;;;;5076340;28;20543;-56
2023/04/13 02:33:35;;;;;;;2.20;0.67;;;9.50;95.70;;;;;;5076609;28;20484;-56
2023/04/13 02:36:03;;;;;;;5.03;0.90;;;9.50;95.90;;;;;;5076749;28;20457;-56
2023/04/13 02:38:32;;;;;;;1.77;0.70;;;9.50;95.80;;;;;;5076693;28;20475;-56
2023/04/13 02:41:00;;;;;;;2.97;0.80;;;9.60;95.80;;;;;;5076342;28;20543;-56
2023/04/13 02:43:28;;;;;;;2.30;0.80;;;9.60;95.90;;;;;;5076545;28;20425;-56
2023/04/13 02:45:55;;;;;;;5.17;1.13;;;9.60;95.90;;;;;;5076145;28;20958;-56
2023/04/13 02:48:22;;;;;;;6.53;2.63;;;9.60;95.80;;;;;;5076729;28;20448;-56
2023/04/13 02:50:49;;;;;;;5.23;1.73;;;9.60;95.80;;;;;;5076482;28;20934;-56
2023/04/13 02:53:17;;;;;;;2.00;0.80;;;9.60;95.70;;;;;;5076079;28;20491;-56
2023/04/13 02:55:46;;;;;;;3.17;0.87;;;9.60;95.80;;;;;;5076342;28;20455;-56
2023/04/13 02:58:13;;;;;;;1.90;0.50;;;9.60;95.80;;;;;;5076208;28;20459;-56
2023/04/13 03:00:40;;;;;;;5.43;0.90;;;9.60;95.80;;;;;;5075905;28;21027;-56
2023/04/13 03:03:07;;;;;;;4.20;0.80;;;9.60;95.60;;;;;;5076119;28;20467;-56
2023/04/13 03:05:34;;;;;;;3.53;0.80;;;9.50;95.40;;;;;;5076199;28;20468;-56
2023/04/13 03:08:01;;;;;;;1.40;0.57;;;9.50;95.90;;;;;;5076116;28;20477;-56
2023/04/13 03:10:29;;;;;;;2.33;0.70;;;9.50;95.60;;;;;;5075903;28;20968;-56
2023/04/13 03:12:57;;;;;;;1.97;0.70;;;9.50;95.50;;;;;;5076011;28;20468;-56
2023/04/13 03:15:24;;;;;;;1.80;0.63;;;9.50;95.50;;;;;;5075811;28;20552;-56
2023/04/13 03:17:51;;;;;;;2.37;0.90;;;9.50;95.70;;;;;;5076704;28;20945;-56
2023/04/13 03:20:20;;;;;;;1.63;0.57;;;9.40;95.70;;;;;;5075436;28;20870;-56
2023/04/13 03:22:46;;;;;;;2.23;0.50;;;9.40;95.90;;;;;;5075705;28;20449;-56
2023/04/13 03:25:13;;;;;;;1.37;0.70;;;9.40;96.00;;;;;;5075612;28;20476;-56
2023/04/13 03:27:40;;;;;;;1.73;0.70;;;9.40;96.30;;;;;;5075595;28;20452;-56
2023/04/13 03:30:09;;;;;;;1.23;0.60;;;9.40;96.50;;;;;;5075631;28;20448;-56
2023/04/13 03:32:36;;;;;;;2.37;0.63;;;9.30;96.40;;;;;;5075533;28;20476;-56
2023/04/13 03:35:02;;;;;;;2.00;0.60;;;9.30;96.50;;;;;;5075691;28;20468;-56
2023/04/13 03:37:31;;;;;;;4.27;0.97;;;9.30;96.80;;;;;;5075477;28;20467;-56
2023/04/13 03:39:58;;;;;;;2.80;0.53;;;9.30;97.10;;;;;;5074928;28;20455;-56
2023/04/13 03:42:25;;;;;;;1.43;0.70;;;9.30;97.10;;;;;;5075243;28;20460;-57
2023/04/13 03:44:52;;;;;;;1.63;0.60;;;9.30;97.60;;;;;;5075284;28;20501;-57
2023/04/13 03:47:20;;;;;;;4.00;0.87;;;9.30;97.90;;;;;;5075476;28;20460;-56
2023/04/13 03:49:47;;;;;;;1.10;0.53;;;9.20;98.20;;;;;;5075209;28;20451;-56
2023/04/13 03:52:13;;;;;;;1.07;0.50;;;9.20;98.30;;;;;;5075369;28;20479;-56
2023/04/13 03:54:40;;;;;;;4.10;0.97;;;9.20;98.50;;;;;;5074990;28;20479;-57
2023/04/13 03:57:07;;;;;;;1.60;0.60;;;9.20;98.80;;;;;;5074851;28;20787;-56
2023/04/13 03:59:34;;;;;;;1.63;0.70;;;9.10;99.00;;;;;;5074914;28;20539;-56
2023/04/13 04:02:01;;;;;;;1.77;0.67;;;9.00;99.00;;;;;;5074794;28;20943;-56
2023/04/13 04:04:30;;;;;;;1.53;0.80;;;9.00;99.60;;;;;;5075185;28;20488;-56
2023/04/13 04:06:58;;;;;;;0.50;0.40;;;8.90;99.50;;;;;;5075058;28;20505;-56
2023/04/13 04:09:25;;;;;;;2.47;0.60;;;8.90;99.50;;;;;;5075125;28;20502;-56
2023/04/13 04:11:51;;;;;;;2.10;0.67;;;8.90;99.30;;;;;;5074824;28;20544;-56
2023/04/13 04:14:19;;;;;;;6.20;0.80;;;8.90;99.20;;;;;;5074719;28;20461;-56
2023/04/13 04:16:45;;;;;;;4.57;0.90;;;8.90;99.00;;;;;;5074408;28;20453;-56
2023/04/13 04:19:12;;;;;;;2.47;0.70;;;8.80;99.30;;;;;;5074664;28;20456;-56
2023/04/13 04:21:45;;;;;;;0.90;0.60;;;8.80;99.60;;;;;;5074716;28;20455;-56
2023/04/13 04:24:19;;;;;;;2.93;0.50;;;8.80;99.70;;;;;;5075410;28;20483;-56
2023/04/13 04:26:48;;;;;;;2.90;0.90;;;8.70;99.80;;;;;;5074316;28;20852;-56
2023/04/13 04:29:15;;;;;;;1.40;0.90;;;8.70;99.90;;;;;;5074465;28;20448;-56
2023/04/13 04:31:43;;;;;;;0.80;0.40;;;8.70;99.90;;;;;;5074490;28;20768;-56
2023/04/13 04:34:10;;;;;;;1.93;0.60;;;8.70;99.90;;;;;;5074407;28;20512;-56
2023/04/13 04:36:40;;;;;;;2.57;0.97;;;8.70;99.90;;;;;;5074355;28;20475;-56
2023/04/13 04:39:08;;;;;;;1.50;0.67;;;8.70;99.90;;;;;;5074944;28;20510;-56
2023/04/13 04:41:36;;;;;;;2.30;1.03;;;8.70;99.90;;;;;;5074096;28;20464;-56
2023/04/13 04:44:07;;;;;;;2.10;0.60;;;8.70;99.90;;;;;;5074251;28;20464;-56
2023/04/13 04:46:36;;;;;;;1.73;0.50;;;8.70;99.90;;;;;;5074305;28;20433;-56
2023/04/13 04:49:02;;;;;;;1.73;0.90;;;8.70;99.90;;;;;;5074436;28;20460;-56
2023/04/13 04:51:29;;;;;;;0.63;0.57;;;8.70;99.90;;;;;;5073282;28;20452;-56
2023/04/13 04:53:57;;;;;;;2.53;1.00;;;8.70;99.90;;;;;;5073496;28;20854;-56
2023/04/13 04:56:25;;;;;;;1.67;1.27;;;8.70;99.90;;;;;;5073707;28;20889;-56
2023/04/13 04:58:52;;;;;;;2.47;0.80;;;8.60;99.90;;;;;;5073615;28;20448;-56
2023/04/13 05:01:21;;;;;;;2.10;0.60;;;8.70;99.90;;;;;;5073948;28;21000;-56
2023/04/13 05:03:48;;;;;;;1.03;0.73;;;8.60;99.90;;;;;;5074058;28;20465;-56
2023/04/13 05:06:14;;;;;;;2.40;1.03;;;8.60;99.90;;;;;;5074064;28;20857;-56
2023/04/13 05:08:43;;;;;;;2.50;0.90;;;8.60;99.90;;;;;;5073538;28;20449;-56
2023/04/13 05:11:10;;;;;;;1.00;0.77;;;8.60;99.90;;;;;;5073979;28;20455;-56
2023/04/13 05:13:38;;;;;;;8.33;1.00;;;8.60;99.90;;;;;;5073635;28;20484;-56
2023/04/13 05:16:05;;;;;;;1.60;1.07;;;8.50;99.90;;;;;;5073584;28;20440;-56
2023/04/13 05:18:43;;;;;;;2.47;0.83;;;8.60;99.90;;;;;;5073639;28;20444;-56
2023/04/13 05:21:09;;;;;;;1.70;0.90;;;8.60;99.90;;;;;;5073618;28;20437;-56
2023/04/13 05:23:36;;;;;;;2.53;0.90;;;8.60;99.90;;;;;;5073532;28;20465;-56
2023/04/13 05:26:03;;;;;;;1.80;0.80;;;8.60;99.90;;;;;;5073609;28;20461;-56
2023/04/13 05:28:30;;;;;;;3.27;1.20;;;8.50;99.90;;;;;;5073501;28;20444;-56
2023/04/13 05:31:02;;;;;;;3.50;1.10;;;8.60;99.90;;;;;;5073597;28;20449;-57
2023/04/13 05:33:29;;;;;;;3.70;1.00;;;8.60;99.90;;;;;;5073306;28;20863;-56
2023/04/13 05:35:55;;;;;;;2.10;1.20;;;8.60;99.90;;;;;;5073539;28;20856;-56
2023/04/13 05:38:22;;;;;;;1.80;1.10;;;8.70;99.90;;;;;;5073373;28;20445;-56
2023/04/13 05:40:49;;;;;;;1.63;1.00;;;8.80;99.90;;;;;;5073264;28;20445;-56
2023/04/13 05:43:16;;;;;;;3.60;1.33;;;8.80;99.90;;;;;;5073284;28;20433;-56
2023/04/13 05:45:43;;;;;;;6.13;1.77;;;8.80;99.90;;;;;;5073478;28;20445;-56
2023/04/13 05:48:11;;;;;;;2.63;1.10;;;8.80;99.90;;;;;;5073293;28;20892;-57
2023/04/13 05:50:38;;;;;;;4.50;1.13;;;8.90;99.90;;;;;;5072906;28;20817;-56
2023/04/13 05:53:05;;;;;;;6.10;1.20;;;9.00;99.90;;;;;;5073380;28;20491;-57
2023/04/13 05:55:32;;;;;;;3.23;1.60;;;9.00;99.90;;;;;;5073206;28;20500;-56
2023/04/13 05:58:00;;;;;;;2.47;0.97;;;9.10;99.90;;;;;;5073166;28;20456;-57
2023/04/13 06:00:27;;;;;;;1.10;0.93;;;9.10;99.90;;;;;;5073233;28;20448;-57
2023/04/13 06:02:54;;;;;;;2.17;1.50;;;9.30;99.90;;;;;;5076523;28;20437;-57
2023/04/13 06:05:23;;;;;;;1.23;0.90;;;9.30;99.90;;;;;;5076829;28;20530;-57
2023/04/13 06:07:49;;;;;;;2.40;1.10;;;9.40;99.90;;;;;;5077187;28;20818;-56
2023/04/13 06:10:18;;;;;;;4.83;1.27;;;9.40;99.90;;;;;;5077261;28;20482;-57
2023/04/13 06:12:47;;;;;;;2.10;0.80;;;9.50;99.70;;;;;;5076929;28;20511;-57
2023/04/13 06:15:14;;;;;;;2.27;1.17;;;9.50;99.80;;;;;;5077030;28;20535;-57
2023/04/13 06:17:41;;;;;;;1.80;1.20;;;9.60;99.80;;;;;;5077116;28;20479;-57
2023/04/13 06:20:10;;;;;;;3.23;1.27;;;9.60;99.70;;;;;;5076985;28;20480;-57
2023/04/13 06:22:38;;;;;;;1.90;0.90;;;9.70;99.50;;;;;;5076745;28;20960;-57
2023/04/13 06:25:05;;;;;;;1.07;0.93;;;9.70;99.00;;;;;;5076810;28;20472;-57
2023/04/13 06:27:32;;;;;;;3.13;0.93;;;9.70;99.00;;;;;;5076808;28;20449;-56
2023/04/13 06:30:00;;;;;;;1.90;0.77;;;9.80;98.90;;;;;;5076944;28;20855;-57
2023/04/13 06:32:26;;;;;;;1.83;0.80;;;9.80;98.60;;;;;;5076864;28;20452;-57
2023/04/13 06:34:53;;;;;;;3.83;1.10;;;9.90;98.80;;;;;;5076692;28;20498;-56
2023/04/13 06:37:20;;;;;;;3.97;1.40;;;9.90;98.80;;;;;;5076768;28;20440;-57
2023/04/13 06:39:48;;;;;;;4.80;1.07;;;9.90;98.80;;;;;;5076535;28;20502;-58
2023/04/13 06:42:15;;;;;;;2.23;0.80;;;10.00;98.30;;;;;;5076188;28;20974;-56
2023/04/13 06:44:42;;;;;;;2.27;0.90;;;10.10;98.30;;;;;;5076683;28;20464;-56
2023/04/13 06:47:08;;;;;;;3.07;0.80;;;10.10;97.90;;;;;;5076793;28;20906;-57
2023/04/13 06:49:35;;;;;;;2.60;1.30;;;10.10;97.80;;;;;;5076592;28;20457;-57
2023/04/13 06:52:02;;;;;;;2.50;1.10;;;10.20;97.80;;;;;;5076323;28;20522;-57
2023/04/13 06:54:29;;;;;;;1.60;1.00;;;10.20;97.70;;;;;;5076135;28;20491;-57
2023/04/13 06:56:57;;;;;;;1.67;0.70;;;10.30;97.50;;;;;;5076110;28;21001;-56
2023/04/13 06:59:24;;;;;;;2.27;1.00;;;10.40;97.70;;;;;;5076290;28;20459;-57
2023/04/13 07:01:51;;;;;;;3.90;1.17;;;10.40;96.80;;;;;;5075923;28;20973;-57
2023/04/13 07:04:18;;;;;;;6.73;1.20;;;10.50;96.70;;;;;;5075850;28;20563;-57
2023/04/13 07:06:45;;;;;;;1.87;1.03;;;10.40;96.80;;;;;;5076145;28;20452;-57
2023/04/13 07:09:11;;;;;;;5.23;1.67;;;10.30;97.30;;;;;;5075790;28;20934;-57
2023/04/13 07:11:38;;;;;;;2.23;1.13;;;10.40;96.90;;;;;;5076336;28;20495;-56
2023/04/13 07:14:06;;;;;;;5.80;1.10;;;10.40;97.00;;;;;;5075092;28;20496;-57
2023/04/13 07:16:33;;;;;;;3.13;0.93;;;10.40;96.70;;;;;;5076005;28;20441;-57
2023/04/13 07:19:00;;;;;;;2.97;0.70;;;10.50;97.20;;;;;;5075679;28;20448;-57
2023/04/13 07:21:27;;;;;;;4.60;1.70;;;10.50;96.60;;;;;;5075798;28;20452;-57
2023/04/13 07:23:54;;;;;;;5.77;1.63;;;10.60;96.70;;;;;;5075711;28;20507;-57
2023/04/13 07:26:20;;;;;;;2.93;1.30;;;10.60;96.50;;;;;;5075984;28;20452;-57
2023/04/13 07:28:47;;;;;;;2.83;1.73;;;10.60;96.60;;;;;;5075952;28;20471;-57
2023/04/13 07:31:16;;;;;;;3.37;1.30;;;10.70;96.70;;;;;;5075747;28;20456;-57
2023/04/13 07:33:42;;;;;;;5.13;1.27;;;10.70;96.60;;;;;;5075430;28;20542;-57
2023/04/13 07:36:10;;;;;;;6.83;1.53;;;10.70;96.40;;;;;;5075582;28;20456;-57
2023/04/13 07:38:37;;;;;;;3.40;1.10;;;10.60;95.90;;;;;;5075521;28;20452;-57
2023/04/13 07:41:03;;;;;;;5.03;1.33;;;10.50;96.20;;;;;;5074959;28;20496;-57
2023/04/13 07:43:30;;;;;;;2.80;1.30;;;10.40;96.40;;;;;;5075624;28;20441;-57
2023/04/13 07:45:57;;;;;;;3.37;1.57;;;10.40;96.60;;;;;;5075365;28;20437;-57
2023/04/13 07:48:25;;;;;;;2.30;1.30;;;10.50;96.50;;;;;;5075336;28;20455;-57
2023/04/13 07:50:52;;;;;;;2.80;1.20;;;10.50;96.80;;;;;;5075183;28;20445;-57
2023/04/13 07:53:18;;;;;;;5.23;1.17;;;10.50;96.50;;;;;;5075032;28;20579;-57
2023/04/13 07:55:45;;;;;;;2.90;1.97;;;10.40;96.80;;;;;;5075403;28;20479;-57
2023/04/13 07:58:12;;;;;;;4.40;1.87;;;10.40;96.80;;;;;;5075124;28;20467;-57
2023/04/13 08:00:39;;;;;;;7.03;1.70;;;10.50;97.30;;;;;;5075140;28;20456;-57
2023/04/13 08:03:06;;;;;;;4.97;1.70;;;10.60;97.30;;;;;;5075014;28;20453;-57
2023/04/13 08:05:35;;;;;;;8.73;1.43;;;10.70;96.90;;;;;;5074672;28;21013;-57
2023/04/13 08:08:01;;;;;;;4.63;1.80;;;10.80;96.20;;;;;;5074937;28;20444;-57
2023/04/13 08:10:28;;;;;;;5.53;1.73;;;10.90;95.60;;;;;;5075105;28;20844;-57
2023/04/13 08:12:55;;;;;;;6.77;2.43;;;10.80;95.80;;;;;;5074743;28;20462;-57
2023/04/13 08:15:23;;;;;;;5.03;2.53;;;10.80;95.70;;;;;;5074548;28;20480;-57
2023/04/13 08:17:49;;;;;;;8.23;1.80;;;10.70;95.70;;;;;;5075418;28;20464;-57
2023/04/13 08:20:16;;;;;;;7.37;1.70;;;10.80;96.20;;;;;;5071714;28;21000;-56
2023/04/13 08:22:45;;;;;;;4.90;2.57;;;11.00;95.80;;;;;;5060875;28;20970;-57
2023/04/13 08:25:12;;;;;;;4.43;1.70;;;11.00;95.60;;;;;;5070661;28;20484;-57
2023/04/13 08:27:39;;;;;;;4.83;1.60;;;11.10;95.40;;;;;;5062143;28;20515;-57
2023/04/13 08:30:07;;;;;;;4.63;2.00;;;11.10;95.60;;;;;;5054821;28;20462;-57
2023/04/13 08:32:34;;;;;;;5.47;2.23;;;11.20;96.10;;;;;;5054312;28;20819;-57
2023/04/13 08:35:05;;;;;;;8.60;2.77;;;11.30;95.60;;;;;;5054109;28;20910;-57
2023/04/13 08:37:32;;;;;;;9.20;2.60;;;11.40;95.10;;;;;;5054287;28;20484;-57
2023/04/13 08:40:00;;;;;;;3.20;1.90;;;11.40;94.80;;;;;;5054271;28;20449;-57
2023/04/13 08:42:27;;;;;;;6.57;2.37;;;11.40;94.80;;;;;;5053883;28;20546;-57
2023/04/13 08:44:57;;;;;;;9.37;1.70;;;11.40;94.70;;;;;;5053911;28;20838;-57
2023/04/13 08:47:27;;;;;;;8.03;2.27;;;11.30;94.90;;;;;;5054249;28;20468;-57
2023/04/13 08:49:56;;;;;;;8.03;1.70;;;11.30;95.50;;;;;;5054203;28;20485;-56
2023/04/13 08:52:23;;;;;;;12.10;3.30;;;11.40;95.20;;;;;;5053818;28;20495;-57
2023/04/13 08:54:51;;;;;;;7.33;2.20;;;11.30;94.90;;;;;;5053863;28;20493;-57
2023/04/13 08:57:20;;;;;;;8.53;2.53;;;11.40;95.50;;;;;;5053976;28;20450;-57
2023/04/13 08:59:51;;;;;;;8.33;2.50;;;11.30;95.50;;;;;;5053912;28;20885;-57
2023/04/13 09:02:22;;;;;;;11.17;2.40;;;11.30;95.10;;;;;;5053543;28;20899;-57
2023/04/13 09:04:50;;;;;;;9.03;2.80;;;11.20;95.10;;;;;;5053820;28;20461;-57
2023/04/13 09:07:25;;;;;;;9.93;2.73;;;11.20;94.90;;;;;;5053825;28;20479;-57
2023/04/13 09:09:56;;;;;;;9.90;3.23;;;11.20;95.20;;;;;;5053887;28;20484;-57
2023/04/13 09:12:25;;;;;;;6.77;2.53;;;11.30;95.50;;;;;;5053743;28;21007;-57
2023/04/13 09:14:51;;;;;;;5.93;2.60;;;11.30;95.40;;;;;;5053532;28;20489;-57
2023/04/13 09:17:25;;;;;;;14.60;2.60;;;11.40;95.80;;;;;;5053685;28;20449;-57
2023/04/13 09:19:53;;;;;;;9.10;3.30;;;11.50;96.00;;;;;;5053542;28;20454;-57
2023/04/13 09:22:20;;;;;;;10.77;2.70;;;11.60;95.50;;;;;;5053617;28;20507;-57
2023/04/13 09:24:47;;;;;;;12.77;2.70;;;11.60;94.90;;;;;;5053231;28;20991;-57
2023/04/13 09:27:18;;;;;;;11.80;2.90;;;11.70;95.20;;;;;;5053521;28;20449;-57
2023/04/13 09:29:51;;;;;;;19.87;3.40;;;11.60;94.60;;;;;;5053606;28;20452;-57
2023/04/13 09:32:22;;;;;;;7.50;2.63;;;11.70;94.50;;;;;;5053580;28;20568;-57
2023/04/13 09:34:59;;;;;;;8.63;2.93;;;12.00;94.80;;;;;;5053563;28;20543;-57
2023/04/13 09:37:27;;;;;;;15.30;3.37;;;12.40;93.70;;;;;;5053285;28;20574;-57
2023/04/13 09:39:54;;;;;;;12.07;3.60;;;12.70;91.70;;;;;;5053615;28;20865;-57
2023/04/13 09:42:22;;;;;;;9.10;2.70;;;13.00;91.30;;;;;;5053276;28;20998;-57
2023/04/13 09:44:57;;;;;;;12.30;2.70;;;13.30;90.70;;;;;;5053040;28;20473;-57
2023/04/13 09:47:24;;;;;;;6.43;3.53;;;13.70;88.60;;;;;;5053065;28;20985;-57
2023/04/13 09:49:52;;;;;;;8.97;2.90;;;13.80;85.40;;;;;;5053046;28;20805;-57
2023/04/13 09:52:19;;;;;;;10.20;2.50;;;13.90;85.40;;;;;;5053330;28;20503;-57
2023/04/13 09:54:50;;;;;;;8.20;2.37;;;14.00;83.40;;;;;;5052840;28;20535;-57
2023/04/13 09:57:23;;;;;;;12.13;2.90;;;14.00;81.30;;;;;;5052852;28;20442;-57
2023/04/13 09:59:50;;;;;;;9.60;2.83;;;14.00;83.90;;;;;;5052851;28;20920;-57
2023/04/13 10:02:19;;;;;;;7.90;2.57;;;13.90;81.30;;;;;;5052805;28;21058;-57
2023/04/13 10:04:46;;;;;;;6.53;2.17;;;13.80;79.80;;;;;;5053043;28;20472;-57
2023/04/13 10:07:13;;;;;;;9.47;2.37;;;13.80;82.50;;;;;;5053202;28;20449;-57
2023/04/13 10:09:40;;;;;;;6.17;3.47;;;13.80;82.90;;;;;;5053344;28;20442;-57
2023/04/13 10:12:10;;;;;;;6.40;2.00;;;13.80;81.50;;;;;;5052996;28;20467;-57
2023/04/13 10:14:42;;;;;;;7.50;2.33;;;13.70;80.20;;;;;;5053098;28;20564;-57
2023/04/13 10:17:32;;;;;;;7.53;2.50;;;13.40;79.50;;;;;;5053088;28;20430;-57
2023/04/13 10:20:06;;;;;;;10.33;2.30;;;13.10;81.40;;;;;;5052939;28;20461;-57
2023/04/13 10:22:33;;;;;;;8.37;2.53;;;12.80;80.10;;;;;;5052983;28;20436;-57
2023/04/13 10:25:00;;;;;;;8.60;2.77;;;12.60;80.70;;;;;;5052850;28;20468;-57
2023/04/13 10:27:28;;;;;;;6.70;2.07;;;12.50;81.30;;;;;;5052640;28;20457;-57
2023/04/13 10:29:54;;;;;;;8.37;2.43;;;12.40;83.70;;;;;;5053000;28;20453;-57
2023/04/13 10:32:22;;;;;;;6.20;1.70;;;12.40;84.10;;;;;;5053639;28;20537;-57
2023/04/13 10:34:50;;;;;;;8.20;2.20;;;12.50;85.40;;;;;;5052349;28;21006;-57
2023/04/13 10:37:19;;;;;;;7.37;2.97;;;12.70;85.30;;;;;;5053138;28;20446;-57
2023/04/13 10:39:47;;;;;;;10.80;2.60;;;12.90;84.20;;;;;;5052435;28;20987;-57
2023/04/13 10:42:14;;;;;;;11.27;3.77;;;13.00;81.30;;;;;;5052525;28;20461;-57
2023/04/13 10:44:42;;;;;;;16.93;2.67;;;13.10;83.00;;;;;;5052630;28;20497;-56
2023/04/13 10:47:09;;;;;;;12.60;2.93;;;13.40;81.90;;;;;;5052720;28;20454;-57
2023/04/13 10:49:37;;;;;;;5.40;2.70;;;13.60;78.90;;;;;;5055341;28;20837;-57
2023/04/13 10:52:05;;;;;;;9.17;2.53;;;13.70;78.70;;;;;;5056285;28;20449;-57
2023/04/13 10:54:34;;;;;;;11.90;2.50;;;13.60;81.00;;;;;;5055922;28;20489;-57
2023/04/13 10:57:03;;;;;;;11.73;2.47;;;13.50;79.10;;;;;;5056225;28;20456;-57
2023/04/13 10:59:38;;;;;;;13.60;4.00;;;13.50;80.80;;;;;;5056153;28;20457;-57
2023/04/13 11:02:08;;;;;;;10.33;2.83;;;13.70;81.20;;;;;;5056176;28;20449;-57
2023/04/13 11:04:38;;;;;;;7.37;2.33;;;13.80;78.30;;;;;;5056101;28;20457;-57
2023/04/13 11:07:07;;;;;;;9.33;2.17;;;14.20;79.60;;;;;;5055990;28;20507;-57
2023/04/13 11:09:34;;;;;;;8.90;2.47;;;14.40;73.70;;;;;;5056271;28;20499;-57
2023/04/13 11:12:01;;;;;;;8.77;2.20;;;14.20;76.10;;;;;;5055585;28;20815;-57
2023/04/13 11:14:27;;;;;;;8.90;2.63;;;14.10;75.50;;;;;;5055787;28;20489;-57
2023/04/13 11:16:55;;;;;;;6.30;2.73;;;13.80;75.50;;;;;;5055898;28;20453;-57
2023/04/13 11:19:22;;;;;;;8.77;2.20;;;13.50;76.00;;;;;;5055786;28;20454;-57
2023/04/13 11:21:54;;;;;;;9.40;3.37;;;13.30;77.00;;;;;;5055836;28;20450;-57
2023/04/13 11:24:26;;;;;;;13.40;3.60;;;13.20;79.00;;;;;;5055896;28;20553;-57
2023/04/13 11:26:54;;;;;;;10.10;2.83;;;13.10;78.70;;;;;;5055415;28;20943;-57
2023/04/13 11:29:21;;;;;;;9.07;2.10;;;13.10;78.70;;;;;;5055689;28;20477;-57
2023/04/13 11:31:48;;;;;;;7.67;2.30;;;13.10;78.50;;;;;;5055611;28;20453;-57
2023/04/13 11:34:24;;;;;;;12.47;2.37;;;13.00;79.40;;;;;;5055543;28;20838;-56
2023/04/13 11:36:59;;;;;;;10.43;2.80;;;13.20;79.30;;;;;;5055287;28;20952;-57
2023/04/13 11:39:27;;;;;;;8.10;2.10;;;13.30;78.40;;;;;;5055617;28;20434;-57
2023/04/13 11:41:54;;;;;;;6.37;2.50;;;13.40;77.70;;;;;;5055250;28;20457;-57
2023/04/13 11:44:22;;;;;;;10.93;3.37;;;13.70;76.70;;;;;;5055275;28;20519;-57
2023/04/13 11:46:52;;;;;;;9.50;2.10;;;14.10;76.40;;;;;;5055640;28;20457;-57
2023/04/13 11:49:19;;;;;;;7.73;2.73;;;14.60;74.90;;;;;;5055048;28;20963;-56
2023/04/13 11:51:47;;;;;;;9.20;2.43;;;15.20;72.80;;;;;;5055346;28;20479;-57
2023/04/13 11:54:15;;;;;;;10.20;2.70;;;15.90;68.50;;;;;;5054992;28;20477;-57
2023/04/13 11:56:44;;;;;;;12.23;2.83;;;16.30;65.90;;;;;;5054909;28;20478;-57
2023/04/13 11:59:12;;;;;;;8.20;2.40;;;16.60;62.70;;;;;;5054985;28;20461;-57
2023/04/13 12:01:39;;;;;;;8.37;3.07;;;16.90;62.00;;;;;;5054683;28;20943;-57
2023/04/13 12:04:06;;;;;;;7.30;2.60;;;17.10;59.30;;;;;;5055092;28;20565;-57
2023/04/13 12:06:34;;;;;;;6.10;2.17;;;17.00;59.70;;;;;;5054996;28;20460;-57
2023/04/13 12:09:01;;;;;;;10.00;2.60;;;16.90;59.80;;;;;;5054974;28;20453;-57
2023/04/13 12:11:36;;;;;;;6.07;2.83;;;16.90;57.30;;;;;;5054965;28;20441;-57
2023/04/13 12:14:04;;;;;;;8.13;2.23;;;17.40;56.00;;;;;;5055112;28;20527;-57
2023/04/13 12:16:33;;;;;;;6.80;2.37;;;18.30;54.80;;;;;;5054412;28;20937;-57
2023/04/13 12:19:06;;;;;;;3.90;1.93;;;18.90;53.70;;;;;;5054718;28;20445;-57
2023/04/13 12:21:33;;;;;;;8.47;2.87;;;19.00;51.50;;;;;;5054982;28;20469;-57
2023/04/13 12:24:01;;;;;;;7.80;1.80;;;19.10;51.20;;;;;;5054648;28;20470;-57
2023/04/13 12:26:32;;;;;;;6.77;2.23;;;19.10;50.50;;;;;;5054310;28;20934;-57
2023/04/13 12:28:59;;;;;;;7.57;1.97;;;19.30;49.90;;;;;;5054903;28;20453;-57
2023/04/13 12:31:32;;;;;;;3.80;1.90;;;19.20;47.80;;;;;;5054487;28;20511;-57
2023/04/13 12:33:59;;;;;;;7.10;2.00;;;18.80;49.40;;;;;;5054557;28;20477;-57
2023/04/13 12:36:30;;;;;;;7.67;2.40;;;18.60;49.00;;;;;;5054043;28;20998;-57
2023/04/13 12:38:57;;;;;;;4.03;1.30;;;18.60;48.70;;;;;;5054558;28;20784;-57
2023/04/13 12:41:23;;;;;;;5.10;1.70;;;18.70;46.20;;;;;;5054174;28;20460;-57
2023/04/13 12:43:50;;;;;;;4.70;1.83;;;18.40;47.20;;;;;;5054242;28;20468;-57
2023/04/13 12:46:17;;;;;;;5.17;1.90;;;18.10;46.30;;;;;;5054180;28;20471;-58
2023/04/13 12:48:45;;;;;;;7.87;2.37;;;17.70;47.80;;;;;;5054199;28;20441;-57
2023/04/13 12:51:12;;;;;;;12.10;2.33;;;17.40;50.90;;;;;;5054098;28;20959;-56
2023/04/13 12:53:38;;;;;;;3.90;1.87;;;17.30;49.80;;;;;;5054412;28;20832;-57
2023/04/13 12:56:06;;;;;;;9.17;2.63;;;17.90;47.90;;;;;;5054654;28;20477;-57